sensor_id;sensor_type;location;lat;lon;timestamp;P1;durP1;ratioP1;P2;durP2;ratioP2
58468;SDS011;44257;44.804;10.220;2023-02-05T00:02:18;57.97;;;27.40;;
58468;SDS011;44257;44.804;10.220;2023-02-05T00:04:44;49.50;;;24.08;;
58468;SDS011;44257;44.804;10.220;2023-02-05T00:07:10;64.00;;;28.63;;
58468;SDS011;44257;44.804;10.220;2023-02-05T00:09:35;58.50;;;24.70;;
58468;SDS011;44257;44.804;10.220;2023-02-05T00:12:04;58.47;;;23.98;;
58468;SDS011;44257;44.804;10.220;2023-02-05T00:14:30;47.13;;;22.90;;
58468;SDS011;44257;44.804;10.220;2023-02-05T00:16:56;57.55;;;23.88;;
58468;SDS011;44257;44.804;10.220;2023-02-05T00:19:22;54.35;;;23.42;;
58468;SDS011;44257;44.804;10.220;2023-02-05T00:21:48;59.15;;;23.17;;
58468;SDS011;44257;44.804;10.220;2023-02-05T00:24:14;47.45;;;21.88;;
58468;SDS011;44257;44.804;10.220;2023-02-05T00:26:40;65.25;;;24.48;;
58468;SDS011;44257;44.804;10.220;2023-02-05T00:29:06;50.03;;;24.23;;
58468;SDS011;44257;44.804;10.220;2023-02-05T00:31:32;47.88;;;23.27;;
58468;SDS011;44257;44.804;10.220;2023-02-05T00:33:57;55.60;;;24.65;;
58468;SDS011;44257;44.804;10.220;2023-02-05T00:36:23;45.15;;;23.52;;
58468;SDS011;44257;44.804;10.220;2023-02-05T00:38:50;52.75;;;23.50;;
58468;SDS011;44257;44.804;10.220;2023-02-05T00:41:17;50.00;;;21.27;;
58468;SDS011;44257;44.804;10.220;2023-02-05T00:43:43;42.97;;;19.80;;
58468;SDS011;44257;44.804;10.220;2023-02-05T00:46:09;41.13;;;21.55;;
58468;SDS011;44257;44.804;10.220;2023-02-05T00:48:36;46.90;;;21.10;;
58468;SDS011;44257;44.804;10.220;2023-02-05T00:51:03;49.10;;;24.60;;
58468;SDS011;44257;44.804;10.220;2023-02-05T00:53:29;50.50;;;24.65;;
58468;SDS011;44257;44.804;10.220;2023-02-05T00:55:55;51.35;;;22.38;;
58468;SDS011;44257;44.804;10.220;2023-02-05T00:58:21;54.17;;;23.63;;
58468;SDS011;44257;44.804;10.220;2023-02-05T01:00:48;48.97;;;23.02;;
58468;SDS011;44257;44.804;10.220;2023-02-05T01:03:15;41.22;;;21.08;;
58468;SDS011;44257;44.804;10.220;2023-02-05T01:05:41;45.25;;;20.60;;
58468;SDS011;44257;44.804;10.220;2023-02-05T01:08:09;41.38;;;22.20;;
58468;SDS011;44257;44.804;10.220;2023-02-05T01:10:36;46.13;;;19.48;;
58468;SDS011;44257;44.804;10.220;2023-02-05T01:13:03;44.75;;;19.25;;
58468;SDS011;44257;44.804;10.220;2023-02-05T01:15:29;43.65;;;22.50;;
58468;SDS011;44257;44.804;10.220;2023-02-05T01:17:55;40.97;;;19.77;;
58468;SDS011;44257;44.804;10.220;2023-02-05T01:20:23;38.13;;;21.58;;
58468;SDS011;44257;44.804;10.220;2023-02-05T01:22:49;40.22;;;19.70;;
58468;SDS011;44257;44.804;10.220;2023-02-05T01:25:15;42.75;;;20.98;;
58468;SDS011;44257;44.804;10.220;2023-02-05T01:27:41;43.75;;;22.40;;
58468;SDS011;44257;44.804;10.220;2023-02-05T01:30:07;43.65;;;19.02;;
58468;SDS011;44257;44.804;10.220;2023-02-05T01:32:35;37.25;;;19.77;;
58468;SDS011;44257;44.804;10.220;2023-02-05T01:35:02;37.20;;;20.95;;
58468;SDS011;44257;44.804;10.220;2023-02-05T01:37:28;37.20;;;18.05;;
58468;SDS011;44257;44.804;10.220;2023-02-05T01:39:55;28.92;;;15.75;;
58468;SDS011;44257;44.804;10.220;2023-02-05T01:42:22;34.60;;;18.20;;
58468;SDS011;44257;44.804;10.220;2023-02-05T01:47:53;28.35;;;15.80;;
58468;SDS011;44257;44.804;10.220;2023-02-05T01:50:27;40.53;;;18.80;;
58468;SDS011;44257;44.804;10.220;2023-02-05T01:52:59;35.80;;;16.23;;
58468;SDS011;44257;44.804;10.220;2023-02-05T01:55:29;25.40;;;14.90;;
58468;SDS011;44257;44.804;10.220;2023-02-05T01:57:56;33.50;;;14.00;;
58468;SDS011;44257;44.804;10.220;2023-02-05T02:00:24;39.13;;;18.17;;
58468;SDS011;44257;44.804;10.220;2023-02-05T02:02:51;37.45;;;18.98;;
58468;SDS011;44257;44.804;10.220;2023-02-05T02:05:17;38.28;;;17.13;;
58468;SDS011;44257;44.804;10.220;2023-02-05T02:07:44;39.03;;;16.05;;
58468;SDS011;44257;44.804;10.220;2023-02-05T02:10:11;34.17;;;16.25;;
58468;SDS011;44257;44.804;10.220;2023-02-05T02:12:40;34.88;;;17.10;;
58468;SDS011;44257;44.804;10.220;2023-02-05T02:15:08;32.75;;;16.40;;
58468;SDS011;44257;44.804;10.220;2023-02-05T02:17:38;35.20;;;16.88;;
58468;SDS011;44257;44.804;10.220;2023-02-05T02:20:07;26.63;;;14.23;;
58468;SDS011;44257;44.804;10.220;2023-02-05T02:33:43;36.95;;;16.05;;
58468;SDS011;44257;44.804;10.220;2023-02-05T02:36:16;35.58;;;17.10;;
58468;SDS011;44257;44.804;10.220;2023-02-05T02:41:26;29.42;;;14.43;;
58468;SDS011;44257;44.804;10.220;2023-02-05T02:43:56;40.10;;;17.17;;
58468;SDS011;44257;44.804;10.220;2023-02-05T02:46:30;33.78;;;16.52;;
58468;SDS011;44257;44.804;10.220;2023-02-05T02:49:07;38.03;;;16.48;;
58468;SDS011;44257;44.804;10.220;2023-02-05T02:51:43;35.80;;;19.15;;
58468;SDS011;44257;44.804;10.220;2023-02-05T02:54:12;34.10;;;16.58;;
58468;SDS011;44257;44.804;10.220;2023-02-05T02:56:41;38.95;;;17.85;;
58468;SDS011;44257;44.804;10.220;2023-02-05T02:59:19;39.05;;;17.65;;
58468;SDS011;44257;44.804;10.220;2023-02-05T03:01:50;30.98;;;15.52;;
58468;SDS011;44257;44.804;10.220;2023-02-05T03:04:23;36.42;;;16.75;;
58468;SDS011;44257;44.804;10.220;2023-02-05T03:07:00;35.63;;;16.65;;
58468;SDS011;44257;44.804;10.220;2023-02-05T03:12:08;40.85;;;15.70;;
58468;SDS011;44257;44.804;10.220;2023-02-05T03:14:35;30.80;;;12.77;;
58468;SDS011;44257;44.804;10.220;2023-02-05T03:17:03;27.83;;;14.27;;
58468;SDS011;44257;44.804;10.220;2023-02-05T03:19:29;38.75;;;13.88;;
58468;SDS011;44257;44.804;10.220;2023-02-05T03:21:57;43.83;;;17.45;;
58468;SDS011;44257;44.804;10.220;2023-02-05T03:24:26;35.17;;;17.02;;
58468;SDS011;44257;44.804;10.220;2023-02-05T03:26:52;30.27;;;15.25;;
58468;SDS011;44257;44.804;10.220;2023-02-05T03:29:24;33.38;;;15.15;;
58468;SDS011;44257;44.804;10.220;2023-02-05T03:32:20;35.70;;;13.45;;
58468;SDS011;44257;44.804;10.220;2023-02-05T03:57:00;27.15;;;11.95;;
58468;SDS011;44257;44.804;10.220;2023-02-05T03:59:49;26.23;;;12.93;;
58468;SDS011;44257;44.804;10.220;2023-02-05T04:02:16;26.38;;;14.32;;
58468;SDS011;44257;44.804;10.220;2023-02-05T04:04:45;29.10;;;15.50;;
58468;SDS011;44257;44.804;10.220;2023-02-05T04:07:12;27.10;;;13.95;;
58468;SDS011;44257;44.804;10.220;2023-02-05T04:09:39;32.67;;;13.60;;
58468;SDS011;44257;44.804;10.220;2023-02-05T04:12:05;27.23;;;14.00;;
58468;SDS011;44257;44.804;10.220;2023-02-05T04:14:33;31.48;;;15.65;;
58468;SDS011;44257;44.804;10.220;2023-02-05T04:16:58;37.55;;;13.63;;
58468;SDS011;44257;44.804;10.220;2023-02-05T04:19:26;28.92;;;15.02;;
58468;SDS011;44257;44.804;10.220;2023-02-05T04:21:54;33.20;;;15.88;;
58468;SDS011;44257;44.804;10.220;2023-02-05T04:24:20;34.88;;;15.85;;
58468;SDS011;44257;44.804;10.220;2023-02-05T04:26:46;44.75;;;15.98;;
58468;SDS011;44257;44.804;10.220;2023-02-05T04:29:12;31.25;;;14.50;;
58468;SDS011;44257;44.804;10.220;2023-02-05T04:31:43;37.55;;;16.40;;
58468;SDS011;44257;44.804;10.220;2023-02-05T04:34:09;28.08;;;14.20;;
58468;SDS011;44257;44.804;10.220;2023-02-05T04:36:35;32.78;;;16.52;;
58468;SDS011;44257;44.804;10.220;2023-02-05T04:39:01;38.67;;;15.85;;
58468;SDS011;44257;44.804;10.220;2023-02-05T04:41:28;41.75;;;16.42;;
58468;SDS011;44257;44.804;10.220;2023-02-05T04:43:54;35.05;;;16.00;;
58468;SDS011;44257;44.804;10.220;2023-02-05T04:46:19;39.53;;;17.02;;
58468;SDS011;44257;44.804;10.220;2023-02-05T04:48:45;36.47;;;17.58;;
58468;SDS011;44257;44.804;10.220;2023-02-05T04:51:12;40.42;;;16.05;;
58468;SDS011;44257;44.804;10.220;2023-02-05T04:53:39;38.97;;;17.48;;
58468;SDS011;44257;44.804;10.220;2023-02-05T04:58:32;38.20;;;16.58;;
58468;SDS011;44257;44.804;10.220;2023-02-05T05:00:58;38.28;;;16.00;;
58468;SDS011;44257;44.804;10.220;2023-02-05T05:03:24;40.45;;;17.67;;
58468;SDS011;44257;44.804;10.220;2023-02-05T05:05:50;41.78;;;15.18;;
58468;SDS011;44257;44.804;10.220;2023-02-05T05:08:16;43.33;;;16.77;;
58468;SDS011;44257;44.804;10.220;2023-02-05T05:10:45;45.83;;;16.10;;
58468;SDS011;44257;44.804;10.220;2023-02-05T05:13:11;45.05;;;17.15;;
58468;SDS011;44257;44.804;10.220;2023-02-05T05:15:37;36.97;;;15.73;;
58468;SDS011;44257;44.804;10.220;2023-02-05T05:18:03;32.45;;;15.27;;
58468;SDS011;44257;44.804;10.220;2023-02-05T05:20:29;23.80;;;13.90;;
58468;SDS011;44257;44.804;10.220;2023-02-05T05:22:55;36.35;;;17.02;;
58468;SDS011;44257;44.804;10.220;2023-02-05T05:25:21;31.38;;;16.35;;
58468;SDS011;44257;44.804;10.220;2023-02-05T05:27:47;42.17;;;17.20;;
58468;SDS011;44257;44.804;10.220;2023-02-05T05:30:13;31.67;;;14.73;;
58468;SDS011;44257;44.804;10.220;2023-02-05T05:32:39;37.45;;;14.38;;
58468;SDS011;44257;44.804;10.220;2023-02-05T05:35:05;31.30;;;13.82;;
58468;SDS011;44257;44.804;10.220;2023-02-05T05:37:31;41.10;;;14.73;;
58468;SDS011;44257;44.804;10.220;2023-02-05T05:39:57;36.15;;;13.27;;
58468;SDS011;44257;44.804;10.220;2023-02-05T05:42:55;29.17;;;13.85;;
58468;SDS011;44257;44.804;10.220;2023-02-05T05:45:39;37.88;;;14.68;;
58468;SDS011;44257;44.804;10.220;2023-02-05T05:48:05;26.90;;;13.60;;
58468;SDS011;44257;44.804;10.220;2023-02-05T05:50:33;29.83;;;13.43;;
58468;SDS011;44257;44.804;10.220;2023-02-05T05:53:00;35.75;;;14.13;;
58468;SDS011;44257;44.804;10.220;2023-02-05T05:55:25;26.58;;;11.73;;
58468;SDS011;44257;44.804;10.220;2023-02-05T05:57:51;29.83;;;13.32;;
58468;SDS011;44257;44.804;10.220;2023-02-05T06:00:17;29.95;;;13.45;;
58468;SDS011;44257;44.804;10.220;2023-02-05T06:02:43;32.03;;;12.60;;
58468;SDS011;44257;44.804;10.220;2023-02-05T06:05:09;36.90;;;14.73;;
58468;SDS011;44257;44.804;10.220;2023-02-05T06:07:35;42.05;;;13.98;;
58468;SDS011;44257;44.804;10.220;2023-02-05T06:10:01;37.35;;;14.95;;
58468;SDS011;44257;44.804;10.220;2023-02-05T06:12:27;29.63;;;12.88;;
58468;SDS011;44257;44.804;10.220;2023-02-05T06:14:53;33.30;;;14.30;;
58468;SDS011;44257;44.804;10.220;2023-02-05T06:17:19;28.60;;;11.73;;
58468;SDS011;44257;44.804;10.220;2023-02-05T06:19:45;29.08;;;13.30;;
58468;SDS011;44257;44.804;10.220;2023-02-05T06:22:11;30.52;;;13.82;;
58468;SDS011;44257;44.804;10.220;2023-02-05T06:24:37;26.98;;;11.48;;
58468;SDS011;44257;44.804;10.220;2023-02-05T06:27:03;31.13;;;11.38;;
58468;SDS011;44257;44.804;10.220;2023-02-05T06:29:29;27.70;;;11.60;;
58468;SDS011;44257;44.804;10.220;2023-02-05T06:31:55;31.15;;;10.70;;
58468;SDS011;44257;44.804;10.220;2023-02-05T06:34:24;20.90;;;10.18;;
58468;SDS011;44257;44.804;10.220;2023-02-05T06:36:50;18.92;;;9.98;;
58468;SDS011;44257;44.804;10.220;2023-02-05T06:39:16;27.38;;;10.02;;
58468;SDS011;44257;44.804;10.220;2023-02-05T06:41:42;27.27;;;10.68;;
58468;SDS011;44257;44.804;10.220;2023-02-05T06:44:08;27.80;;;11.73;;
58468;SDS011;44257;44.804;10.220;2023-02-05T06:46:34;25.23;;;10.88;;
58468;SDS011;44257;44.804;10.220;2023-02-05T06:48:59;33.58;;;12.60;;
58468;SDS011;44257;44.804;10.220;2023-02-05T06:51:26;25.63;;;11.82;;
58468;SDS011;44257;44.804;10.220;2023-02-05T06:53:51;26.15;;;11.57;;
58468;SDS011;44257;44.804;10.220;2023-02-05T06:56:19;36.33;;;12.48;;
58468;SDS011;44257;44.804;10.220;2023-02-05T06:58:45;25.85;;;11.63;;
58468;SDS011;44257;44.804;10.220;2023-02-05T07:01:11;28.05;;;12.02;;
58468;SDS011;44257;44.804;10.220;2023-02-05T07:03:36;36.55;;;15.55;;
58468;SDS011;44257;44.804;10.220;2023-02-05T07:06:03;29.58;;;12.45;;
58468;SDS011;44257;44.804;10.220;2023-02-05T07:08:30;26.35;;;11.90;;
58468;SDS011;44257;44.804;10.220;2023-02-05T07:10:56;35.08;;;13.07;;
58468;SDS011;44257;44.804;10.220;2023-02-05T07:13:22;27.52;;;9.70;;
58468;SDS011;44257;44.804;10.220;2023-02-05T07:15:48;31.85;;;14.32;;
58468;SDS011;44257;44.804;10.220;2023-02-05T07:18:14;36.33;;;12.25;;
58468;SDS011;44257;44.804;10.220;2023-02-05T07:20:40;38.95;;;13.57;;
58468;SDS011;44257;44.804;10.220;2023-02-05T07:23:06;29.92;;;13.82;;
58468;SDS011;44257;44.804;10.220;2023-02-05T07:25:32;30.20;;;14.13;;
58468;SDS011;44257;44.804;10.220;2023-02-05T07:28:03;30.55;;;12.82;;
58468;SDS011;44257;44.804;10.220;2023-02-05T07:30:30;33.33;;;13.98;;
58468;SDS011;44257;44.804;10.220;2023-02-05T07:32:55;19.80;;;12.95;;
58468;SDS011;44257;44.804;10.220;2023-02-05T07:35:21;29.88;;;13.82;;
58468;SDS011;44257;44.804;10.220;2023-02-05T07:37:47;32.53;;;14.30;;
58468;SDS011;44257;44.804;10.220;2023-02-05T07:40:13;31.40;;;11.52;;
58468;SDS011;44257;44.804;10.220;2023-02-05T07:42:39;30.58;;;13.77;;
58468;SDS011;44257;44.804;10.220;2023-02-05T07:45:06;32.50;;;14.35;;
58468;SDS011;44257;44.804;10.220;2023-02-05T07:47:32;29.88;;;14.40;;
58468;SDS011;44257;44.804;10.220;2023-02-05T07:49:58;30.55;;;13.38;;
58468;SDS011;44257;44.804;10.220;2023-02-05T07:52:24;32.05;;;13.43;;
58468;SDS011;44257;44.804;10.220;2023-02-05T07:54:50;36.25;;;13.35;;
58468;SDS011;44257;44.804;10.220;2023-02-05T07:57:16;29.63;;;14.63;;
58468;SDS011;44257;44.804;10.220;2023-02-05T07:59:42;30.77;;;13.98;;
58468;SDS011;44257;44.804;10.220;2023-02-05T08:02:08;32.28;;;14.63;;
58468;SDS011;44257;44.804;10.220;2023-02-05T08:04:35;33.95;;;12.57;;
58468;SDS011;44257;44.804;10.220;2023-02-05T08:07:01;31.38;;;13.95;;
58468;SDS011;44257;44.804;10.220;2023-02-05T08:09:27;33.10;;;15.13;;
58468;SDS011;44257;44.804;10.220;2023-02-05T08:11:53;25.60;;;12.75;;
58468;SDS011;44257;44.804;10.220;2023-02-05T08:14:19;30.92;;;13.40;;
58468;SDS011;44257;44.804;10.220;2023-02-05T08:16:45;29.42;;;13.32;;
58468;SDS011;44257;44.804;10.220;2023-02-05T08:19:14;28.42;;;14.43;;
58468;SDS011;44257;44.804;10.220;2023-02-05T08:21:42;40.87;;;13.90;;
58468;SDS011;44257;44.804;10.220;2023-02-05T08:24:08;25.80;;;12.27;;
58468;SDS011;44257;44.804;10.220;2023-02-05T08:26:34;22.52;;;10.52;;
58468;SDS011;44257;44.804;10.220;2023-02-05T08:29:01;24.65;;;10.95;;
58468;SDS011;44257;44.804;10.220;2023-02-05T08:31:27;22.10;;;11.50;;
58468;SDS011;44257;44.804;10.220;2023-02-05T08:33:53;26.23;;;10.63;;
58468;SDS011;44257;44.804;10.220;2023-02-05T08:36:20;25.48;;;10.95;;
58468;SDS011;44257;44.804;10.220;2023-02-05T08:38:47;23.40;;;12.63;;
58468;SDS011;44257;44.804;10.220;2023-02-05T08:41:13;42.25;;;12.80;;
58468;SDS011;44257;44.804;10.220;2023-02-05T08:43:40;26.33;;;12.43;;
58468;SDS011;44257;44.804;10.220;2023-02-05T08:46:07;24.27;;;9.73;;
58468;SDS011;44257;44.804;10.220;2023-02-05T08:48:33;21.85;;;9.32;;
58468;SDS011;44257;44.804;10.220;2023-02-05T08:50:59;17.73;;;8.68;;
58468;SDS011;44257;44.804;10.220;2023-02-05T08:53:25;21.05;;;8.63;;
58468;SDS011;44257;44.804;10.220;2023-02-05T08:55:55;20.05;;;7.15;;
58468;SDS011;44257;44.804;10.220;2023-02-05T08:58:22;14.95;;;7.25;;
58468;SDS011;44257;44.804;10.220;2023-02-05T09:00:48;13.30;;;5.53;;
58468;SDS011;44257;44.804;10.220;2023-02-05T09:03:14;10.43;;;4.80;;
58468;SDS011;44257;44.804;10.220;2023-02-05T09:05:41;15.63;;;6.53;;
58468;SDS011;44257;44.804;10.220;2023-02-05T09:08:07;14.80;;;5.40;;
58468;SDS011;44257;44.804;10.220;2023-02-05T09:10:33;16.17;;;6.85;;
58468;SDS011;44257;44.804;10.220;2023-02-05T09:12:59;14.30;;;6.13;;
58468;SDS011;44257;44.804;10.220;2023-02-05T09:15:25;11.55;;;5.60;;
58468;SDS011;44257;44.804;10.220;2023-02-05T09:17:51;11.35;;;5.50;;
58468;SDS011;44257;44.804;10.220;2023-02-05T09:20:17;18.40;;;6.43;;
58468;SDS011;44257;44.804;10.220;2023-02-05T09:22:43;13.68;;;5.53;;
58468;SDS011;44257;44.804;10.220;2023-02-05T09:25:09;14.15;;;6.18;;
58468;SDS011;44257;44.804;10.220;2023-02-05T09:27:36;15.95;;;6.57;;
58468;SDS011;44257;44.804;10.220;2023-02-05T09:30:02;15.30;;;5.72;;
58468;SDS011;44257;44.804;10.220;2023-02-05T09:32:28;13.15;;;6.55;;
58468;SDS011;44257;44.804;10.220;2023-02-05T09:34:54;17.80;;;5.32;;
58468;SDS011;44257;44.804;10.220;2023-02-05T09:37:20;10.80;;;5.57;;
58468;SDS011;44257;44.804;10.220;2023-02-05T09:39:46;9.95;;;5.35;;
58468;SDS011;44257;44.804;10.220;2023-02-05T09:50:05;13.32;;;5.70;;
58468;SDS011;44257;44.804;10.220;2023-02-05T09:52:52;8.98;;;4.68;;
58468;SDS011;44257;44.804;10.220;2023-02-05T09:55:28;11.32;;;4.63;;
58468;SDS011;44257;44.804;10.220;2023-02-05T09:57:59;8.95;;;4.43;;
58468;SDS011;44257;44.804;10.220;2023-02-05T10:00:32;13.73;;;4.78;;
58468;SDS011;44257;44.804;10.220;2023-02-05T10:08:47;12.70;;;4.75;;
58468;SDS011;44257;44.804;10.220;2023-02-05T10:11:37;10.52;;;4.20;;
58468;SDS011;44257;44.804;10.220;2023-02-05T10:14:11;9.57;;;4.57;;
58468;SDS011;44257;44.804;10.220;2023-02-05T10:17:04;14.38;;;5.00;;
58468;SDS011;44257;44.804;10.220;2023-02-05T10:22:16;16.65;;;5.22;;
58468;SDS011;44257;44.804;10.220;2023-02-05T10:27:43;10.93;;;5.40;;
58468;SDS011;44257;44.804;10.220;2023-02-05T10:30:15;10.32;;;5.10;;
58468;SDS011;44257;44.804;10.220;2023-02-05T10:32:47;10.77;;;5.15;;
58468;SDS011;44257;44.804;10.220;2023-02-05T10:35:31;13.25;;;6.18;;
58468;SDS011;44257;44.804;10.220;2023-02-05T10:38:14;12.10;;;6.05;;
58468;SDS011;44257;44.804;10.220;2023-02-05T10:40:46;13.15;;;5.68;;
58468;SDS011;44257;44.804;10.220;2023-02-05T10:43:23;13.68;;;5.22;;
58468;SDS011;44257;44.804;10.220;2023-02-05T10:45:54;17.52;;;6.60;;
58468;SDS011;44257;44.804;10.220;2023-02-05T10:53:39;14.40;;;5.55;;
58468;SDS011;44257;44.804;10.220;2023-02-05T10:56:06;13.38;;;5.95;;
58468;SDS011;44257;44.804;10.220;2023-02-05T10:58:43;17.70;;;6.97;;
58468;SDS011;44257;44.804;10.220;2023-02-05T11:01:36;20.40;;;7.60;;
58468;SDS011;44257;44.804;10.220;2023-02-05T11:04:24;15.90;;;6.95;;
58468;SDS011;44257;44.804;10.220;2023-02-05T11:09:51;16.65;;;7.18;;
58468;SDS011;44257;44.804;10.220;2023-02-05T11:12:28;16.10;;;7.40;;
58468;SDS011;44257;44.804;10.220;2023-02-05T11:14:59;19.35;;;7.28;;
58468;SDS011;44257;44.804;10.220;2023-02-05T11:17:34;14.73;;;6.78;;
58468;SDS011;44257;44.804;10.220;2023-02-05T11:20:06;27.80;;;9.85;;
58468;SDS011;44257;44.804;10.220;2023-02-05T11:22:36;30.98;;;10.82;;
58468;SDS011;44257;44.804;10.220;2023-02-05T11:25:06;26.92;;;11.38;;
58468;SDS011;44257;44.804;10.220;2023-02-05T11:27:53;22.33;;;9.98;;
58468;SDS011;44257;44.804;10.220;2023-02-05T11:30:24;27.05;;;10.68;;
58468;SDS011;44257;44.804;10.220;2023-02-05T11:32:57;20.33;;;10.23;;
58468;SDS011;44257;44.804;10.220;2023-02-05T11:35:40;18.33;;;8.15;;
58468;SDS011;44257;44.804;10.220;2023-02-05T11:38:19;20.52;;;9.27;;
58468;SDS011;44257;44.804;10.220;2023-02-05T11:41:06;33.80;;;13.80;;
58468;SDS011;44257;44.804;10.220;2023-02-05T11:43:34;21.83;;;8.85;;
58468;SDS011;44257;44.804;10.220;2023-02-05T11:46:15;17.35;;;8.25;;
58468;SDS011;44257;44.804;10.220;2023-02-05T11:48:45;18.25;;;8.65;;
58468;SDS011;44257;44.804;10.220;2023-02-05T11:54:12;20.88;;;9.05;;
58468;SDS011;44257;44.804;10.220;2023-02-05T11:56:39;20.45;;;8.80;;
58468;SDS011;44257;44.804;10.220;2023-02-05T11:59:15;14.55;;;8.75;;
58468;SDS011;44257;44.804;10.220;2023-02-05T12:01:46;20.35;;;8.40;;
58468;SDS011;44257;44.804;10.220;2023-02-05T12:09:24;17.95;;;8.32;;
58468;SDS011;44257;44.804;10.220;2023-02-05T12:12:03;24.10;;;8.93;;
58468;SDS011;44257;44.804;10.220;2023-02-05T12:17:37;14.48;;;8.85;;
58468;SDS011;44257;44.804;10.220;2023-02-05T12:20:31;21.35;;;9.35;;
58468;SDS011;44257;44.804;10.220;2023-02-05T12:26:04;20.83;;;7.55;;
58468;SDS011;44257;44.804;10.220;2023-02-05T12:34:21;18.05;;;8.40;;
58468;SDS011;44257;44.804;10.220;2023-02-05T12:45:58;15.00;;;7.20;;
58468;SDS011;44257;44.804;10.220;2023-02-05T12:48:37;15.77;;;8.15;;
58468;SDS011;44257;44.804;10.220;2023-02-05T12:51:09;21.00;;;8.75;;
58468;SDS011;44257;44.804;10.220;2023-02-05T12:54:06;21.02;;;8.32;;
58468;SDS011;44257;44.804;10.220;2023-02-05T12:57:03;19.85;;;8.10;;
58468;SDS011;44257;44.804;10.220;2023-02-05T12:59:47;21.15;;;9.80;;
58468;SDS011;44257;44.804;10.220;2023-02-05T13:04:48;16.10;;;8.30;;
58468;SDS011;44257;44.804;10.220;2023-02-05T13:10:01;22.65;;;9.18;;
58468;SDS011;44257;44.804;10.220;2023-02-05T13:12:31;21.33;;;8.23;;
58468;SDS011;44257;44.804;10.220;2023-02-05T13:17:58;15.60;;;7.93;;
58468;SDS011;44257;44.804;10.220;2023-02-05T13:20:45;13.82;;;6.95;;
58468;SDS011;44257;44.804;10.220;2023-02-05T13:23:36;17.35;;;7.25;;
58468;SDS011;44257;44.804;10.220;2023-02-05T13:26:31;14.07;;;6.43;;
58468;SDS011;44257;44.804;10.220;2023-02-05T13:29:23;12.27;;;5.35;;
58468;SDS011;44257;44.804;10.220;2023-02-05T13:32:03;13.63;;;6.80;;
58468;SDS011;44257;44.804;10.220;2023-02-05T13:45:38;18.35;;;7.15;;
58468;SDS011;44257;44.804;10.220;2023-02-05T14:01:50;10.60;;;4.22;;
58468;SDS011;44257;44.804;10.220;2023-02-05T14:04:22;7.03;;;3.38;;
58468;SDS011;44257;44.804;10.220;2023-02-05T14:07:08;9.07;;;3.58;;
58468;SDS011;44257;44.804;10.220;2023-02-05T14:09:43;5.20;;;2.90;;
58468;SDS011;44257;44.804;10.220;2023-02-05T14:12:27;14.02;;;3.05;;
58468;SDS011;44257;44.804;10.220;2023-02-05T14:20:28;7.10;;;3.63;;
58468;SDS011;44257;44.804;10.220;2023-02-05T14:23:20;5.28;;;2.78;;
58468;SDS011;44257;44.804;10.220;2023-02-05T14:26:13;7.28;;;2.63;;
58468;SDS011;44257;44.804;10.220;2023-02-05T14:28:46;6.97;;;2.45;;
58468;SDS011;44257;44.804;10.220;2023-02-05T14:31:47;2.47;;;1.10;;
58468;SDS011;44257;44.804;10.220;2023-02-05T14:34:26;6.32;;;1.27;;
58468;SDS011;44257;44.804;10.220;2023-02-05T14:37:22;5.03;;;2.38;;
58468;SDS011;44257;44.804;10.220;2023-02-05T14:39:55;3.45;;;1.63;;
58468;SDS011;44257;44.804;10.220;2023-02-05T14:42:22;3.63;;;1.20;;
58468;SDS011;44257;44.804;10.220;2023-02-05T14:44:52;4.15;;;1.10;;
58468;SDS011;44257;44.804;10.220;2023-02-05T14:47:22;4.20;;;1.05;;
58468;SDS011;44257;44.804;10.220;2023-02-05T14:49:57;2.88;;;1.25;;
58468;SDS011;44257;44.804;10.220;2023-02-05T14:52:36;2.95;;;1.15;;
58468;SDS011;44257;44.804;10.220;2023-02-05T14:57:50;3.13;;;1.20;;
58468;SDS011;44257;44.804;10.220;2023-02-05T15:13:41;5.68;;;1.30;;
58468;SDS011;44257;44.804;10.220;2023-02-05T15:16:27;1.40;;;0.90;;
58468;SDS011;44257;44.804;10.220;2023-02-05T15:18:53;3.30;;;1.55;;
58468;SDS011;44257;44.804;10.220;2023-02-05T15:21:30;3.92;;;1.38;;
58468;SDS011;44257;44.804;10.220;2023-02-05T15:24:13;3.15;;;1.27;;
58468;SDS011;44257;44.804;10.220;2023-02-05T15:26:46;2.30;;;1.08;;
58468;SDS011;44257;44.804;10.220;2023-02-05T15:29:17;2.33;;;0.93;;
58468;SDS011;44257;44.804;10.220;2023-02-05T15:31:53;3.78;;;1.15;;
58468;SDS011;44257;44.804;10.220;2023-02-05T15:43:01;4.07;;;1.20;;
58468;SDS011;44257;44.804;10.220;2023-02-05T15:45:39;3.88;;;1.45;;
58468;SDS011;44257;44.804;10.220;2023-02-05T15:50:46;3.20;;;1.13;;
58468;SDS011;44257;44.804;10.220;2023-02-05T16:01:42;3.83;;;1.88;;
58468;SDS011;44257;44.804;10.220;2023-02-05T16:04:36;1.92;;;1.27;;
58468;SDS011;44257;44.804;10.220;2023-02-05T16:07:28;4.45;;;1.77;;
58468;SDS011;44257;44.804;10.220;2023-02-05T16:09:59;4.57;;;1.10;;
58468;SDS011;44257;44.804;10.220;2023-02-05T16:12:26;3.55;;;1.70;;
58468;SDS011;44257;44.804;10.220;2023-02-05T16:15:01;4.63;;;2.63;;
58468;SDS011;44257;44.804;10.220;2023-02-05T16:17:36;3.33;;;1.70;;
58468;SDS011;44257;44.804;10.220;2023-02-05T16:22:41;8.88;;;2.00;;
58468;SDS011;44257;44.804;10.220;2023-02-05T16:28:17;3.45;;;1.50;;
58468;SDS011;44257;44.804;10.220;2023-02-05T16:30:56;4.47;;;1.20;;
58468;SDS011;44257;44.804;10.220;2023-02-05T16:38:39;3.17;;;1.42;;
58468;SDS011;44257;44.804;10.220;2023-02-05T16:43:51;4.22;;;1.50;;
58468;SDS011;44257;44.804;10.220;2023-02-05T16:51:30;5.40;;;1.70;;
58468;SDS011;44257;44.804;10.220;2023-02-05T16:54:39;2.85;;;1.45;;
58468;SDS011;44257;44.804;10.220;2023-02-05T16:56:57;3.65;;;1.50;;
58468;SDS011;44257;44.804;10.220;2023-02-05T16:59:48;7.50;;;1.27;;
58468;SDS011;44257;44.804;10.220;2023-02-05T17:02:25;5.15;;;1.52;;
58468;SDS011;44257;44.804;10.220;2023-02-05T17:04:55;3.60;;;1.70;;
58468;SDS011;44257;44.804;10.220;2023-02-05T17:07:23;3.40;;;1.45;;
58468;SDS011;44257;44.804;10.220;2023-02-05T17:09:49;3.42;;;1.73;;
58468;SDS011;44257;44.804;10.220;2023-02-05T17:20:43;4.85;;;1.88;;
58468;SDS011;44257;44.804;10.220;2023-02-05T17:23:12;3.05;;;1.48;;
58468;SDS011;44257;44.804;10.220;2023-02-05T17:28:19;5.47;;;2.67;;
58468;SDS011;44257;44.804;10.220;2023-02-05T17:30:49;3.83;;;2.45;;
58468;SDS011;44257;44.804;10.220;2023-02-05T17:33:20;4.00;;;1.63;;
58468;SDS011;44257;44.804;10.220;2023-02-05T17:35:48;12.10;;;2.38;;
58468;SDS011;44257;44.804;10.220;2023-02-05T17:38:14;8.18;;;2.42;;
58468;SDS011;44257;44.804;10.220;2023-02-05T17:40:41;4.03;;;1.55;;
58468;SDS011;44257;44.804;10.220;2023-02-05T17:43:07;2.53;;;1.40;;
58468;SDS011;44257;44.804;10.220;2023-02-05T17:45:35;4.03;;;1.75;;
58468;SDS011;44257;44.804;10.220;2023-02-05T17:48:03;6.35;;;1.58;;
58468;SDS011;44257;44.804;10.220;2023-02-05T17:50:31;3.58;;;1.60;;
58468;SDS011;44257;44.804;10.220;2023-02-05T17:53:01;6.43;;;2.20;;
58468;SDS011;44257;44.804;10.220;2023-02-05T17:55:28;4.13;;;2.20;;
58468;SDS011;44257;44.804;10.220;2023-02-05T17:57:54;8.55;;;3.45;;
58468;SDS011;44257;44.804;10.220;2023-02-05T18:00:23;4.40;;;1.98;;